Azusa, California
Current Conditions -  °F | °C
As of 8:47 PM on Saturday 22 Nov 2014 (Local Time) from KPOC Reporting Station
Few Clouds Few Clouds  
Wind Chill: 59°   Ceiling: Unl
Heat Index: 59°   Visibility: 10mi
Dew Point: 54°   Wind: 0mph
Humidity: 82%   Direction: NA
Pressure: 30.08"   Gusts: NA
Location:  34.13°N, 117.9°W
Report Text: KPOC 230447Z 00000KT 10SM FEW032 15/12 A3008 RMK LAST
Loading
Personal Weather Stations






























Interactive Weather Map New forecast layout! Learn more

10-Day Weather Forecast

Advertisements
Track Severe Weather on mobile